sensor_id;sensor_type;location;lat;lon;timestamp;P1;durP1;ratioP1;P2;durP2;ratioP2
53646;SDS011;39550;52.230;5.194;2023-01-10T00:02:14;10.85;;;3.50;;
53646;SDS011;39550;52.230;5.194;2023-01-10T00:04:40;9.63;;;3.45;;
53646;SDS011;39550;52.230;5.194;2023-01-10T00:07:05;10.45;;;3.58;;
53646;SDS011;39550;52.230;5.194;2023-01-10T00:09:31;9.50;;;3.40;;
53646;SDS011;39550;52.230;5.194;2023-01-10T00:11:56;9.45;;;3.35;;
53646;SDS011;39550;52.230;5.194;2023-01-10T00:14:40;7.68;;;3.58;;
53646;SDS011;39550;52.230;5.194;2023-01-10T00:17:06;10.60;;;4.03;;
53646;SDS011;39550;52.230;5.194;2023-01-10T00:19:31;9.38;;;3.60;;
53646;SDS011;39550;52.230;5.194;2023-01-10T00:21:56;8.00;;;3.72;;
53646;SDS011;39550;52.230;5.194;2023-01-10T00:26:52;6.85;;;3.58;;
53646;SDS011;39550;52.230;5.194;2023-01-10T00:29:23;9.93;;;4.03;;
53646;SDS011;39550;52.230;5.194;2023-01-10T00:31:54;10.68;;;3.95;;
53646;SDS011;39550;52.230;5.194;2023-01-10T00:34:21;8.57;;;3.90;;
53646;SDS011;39550;52.230;5.194;2023-01-10T00:36:46;6.88;;;3.78;;
53646;SDS011;39550;52.230;5.194;2023-01-10T00:39:12;8.70;;;3.50;;
53646;SDS011;39550;52.230;5.194;2023-01-10T00:41:39;12.73;;;4.15;;
53646;SDS011;39550;52.230;5.194;2023-01-10T00:44:23;10.13;;;4.20;;
53646;SDS011;39550;52.230;5.194;2023-01-10T00:46:50;8.10;;;3.20;;
53646;SDS011;39550;52.230;5.194;2023-01-10T00:49:15;10.43;;;3.28;;
53646;SDS011;39550;52.230;5.194;2023-01-10T00:51:41;10.43;;;3.60;;
53646;SDS011;39550;52.230;5.194;2023-01-10T00:54:08;8.52;;;3.38;;
53646;SDS011;39550;52.230;5.194;2023-01-10T00:56:34;10.48;;;4.00;;
53646;SDS011;39550;52.230;5.194;2023-01-10T00:58:59;8.77;;;3.63;;
53646;SDS011;39550;52.230;5.194;2023-01-10T01:01:25;10.13;;;4.32;;
53646;SDS011;39550;52.230;5.194;2023-01-10T01:03:53;10.00;;;3.60;;
53646;SDS011;39550;52.230;5.194;2023-01-10T01:06:18;7.70;;;3.50;;
53646;SDS011;39550;52.230;5.194;2023-01-10T01:08:44;8.32;;;3.47;;
53646;SDS011;39550;52.230;5.194;2023-01-10T01:11:09;9.40;;;4.18;;
53646;SDS011;39550;52.230;5.194;2023-01-10T01:13:34;8.23;;;3.45;;
53646;SDS011;39550;52.230;5.194;2023-01-10T01:16:00;8.25;;;3.33;;
53646;SDS011;39550;52.230;5.194;2023-01-10T01:18:26;9.32;;;3.60;;
53646;SDS011;39550;52.230;5.194;2023-01-10T01:20:52;10.88;;;3.05;;
53646;SDS011;39550;52.230;5.194;2023-01-10T01:23:20;10.27;;;3.42;;
53646;SDS011;39550;52.230;5.194;2023-01-10T01:25:48;11.00;;;3.50;;
53646;SDS011;39550;52.230;5.194;2023-01-10T01:28:15;10.05;;;3.58;;
53646;SDS011;39550;52.230;5.194;2023-01-10T01:30:40;11.50;;;3.53;;
53646;SDS011;39550;52.230;5.194;2023-01-10T01:33:06;9.65;;;3.15;;
53646;SDS011;39550;52.230;5.194;2023-01-10T01:35:31;10.23;;;3.83;;
53646;SDS011;39550;52.230;5.194;2023-01-10T01:37:57;10.15;;;3.58;;
53646;SDS011;39550;52.230;5.194;2023-01-10T01:40:22;8.27;;;3.45;;
53646;SDS011;39550;52.230;5.194;2023-01-10T01:42:48;8.70;;;3.30;;
53646;SDS011;39550;52.230;5.194;2023-01-10T01:45:25;7.63;;;3.35;;
53646;SDS011;39550;52.230;5.194;2023-01-10T01:56:11;8.45;;;3.13;;
53646;SDS011;39550;52.230;5.194;2023-01-10T02:01:29;8.88;;;3.30;;
53646;SDS011;39550;52.230;5.194;2023-01-10T02:03:58;10.38;;;3.75;;
53646;SDS011;39550;52.230;5.194;2023-01-10T02:06:32;13.38;;;4.05;;
53646;SDS011;39550;52.230;5.194;2023-01-10T02:09:07;10.73;;;3.60;;
53646;SDS011;39550;52.230;5.194;2023-01-10T02:11:39;8.73;;;3.35;;
53646;SDS011;39550;52.230;5.194;2023-01-10T02:14:05;11.50;;;3.45;;
53646;SDS011;39550;52.230;5.194;2023-01-10T02:16:32;8.77;;;3.35;;
53646;SDS011;39550;52.230;5.194;2023-01-10T02:18:57;9.82;;;3.80;;
53646;SDS011;39550;52.230;5.194;2023-01-10T02:21:27;11.07;;;3.80;;
53646;SDS011;39550;52.230;5.194;2023-01-10T02:27:05;8.63;;;3.40;;
53646;SDS011;39550;52.230;5.194;2023-01-10T02:37:22;8.93;;;3.15;;
53646;SDS011;39550;52.230;5.194;2023-01-10T02:40:03;9.93;;;3.53;;
53646;SDS011;39550;52.230;5.194;2023-01-10T02:45:13;13.05;;;3.65;;
53646;SDS011;39550;52.230;5.194;2023-01-10T02:47:45;9.90;;;3.72;;
53646;SDS011;39550;52.230;5.194;2023-01-10T02:50:23;10.05;;;3.42;;
53646;SDS011;39550;52.230;5.194;2023-01-10T02:52:54;14.07;;;4.22;;
53646;SDS011;39550;52.230;5.194;2023-01-10T02:55:25;10.18;;;4.03;;
53646;SDS011;39550;52.230;5.194;2023-01-10T02:58:16;9.13;;;3.20;;
53646;SDS011;39550;52.230;5.194;2023-01-10T03:01:15;11.23;;;3.28;;
53646;SDS011;39550;52.230;5.194;2023-01-10T03:07:20;13.50;;;3.78;;
53646;SDS011;39550;52.230;5.194;2023-01-10T03:09:51;6.55;;;3.65;;
53646;SDS011;39550;52.230;5.194;2023-01-10T03:15:22;9.57;;;3.90;;
53646;SDS011;39550;52.230;5.194;2023-01-10T03:17:53;12.98;;;4.15;;
53646;SDS011;39550;52.230;5.194;2023-01-10T03:20:22;7.20;;;3.30;;
53646;SDS011;39550;52.230;5.194;2023-01-10T03:22:47;9.45;;;3.60;;
53646;SDS011;39550;52.230;5.194;2023-01-10T03:25:18;8.57;;;3.28;;
53646;SDS011;39550;52.230;5.194;2023-01-10T03:27:49;9.88;;;3.35;;
53646;SDS011;39550;52.230;5.194;2023-01-10T03:30:38;10.95;;;3.55;;
53646;SDS011;39550;52.230;5.194;2023-01-10T03:33:10;7.53;;;3.15;;
53646;SDS011;39550;52.230;5.194;2023-01-10T03:35:42;7.50;;;3.47;;
53646;SDS011;39550;52.230;5.194;2023-01-10T03:38:44;10.32;;;3.60;;
53646;SDS011;39550;52.230;5.194;2023-01-10T03:43:44;10.70;;;3.55;;
53646;SDS011;39550;52.230;5.194;2023-01-10T03:46:48;11.98;;;3.58;;
53646;SDS011;39550;52.230;5.194;2023-01-10T03:49:19;11.05;;;3.60;;
53646;SDS011;39550;52.230;5.194;2023-01-10T03:51:48;10.82;;;4.22;;
53646;SDS011;39550;52.230;5.194;2023-01-10T03:54:14;14.73;;;3.70;;
53646;SDS011;39550;52.230;5.194;2023-01-10T03:56:47;10.25;;;3.78;;
53646;SDS011;39550;52.230;5.194;2023-01-10T03:59:15;10.82;;;4.03;;
53646;SDS011;39550;52.230;5.194;2023-01-10T04:01:43;8.20;;;3.75;;
53646;SDS011;39550;52.230;5.194;2023-01-10T04:04:08;11.23;;;4.43;;
53646;SDS011;39550;52.230;5.194;2023-01-10T04:06:33;10.63;;;4.00;;
53646;SDS011;39550;52.230;5.194;2023-01-10T04:08:59;9.10;;;4.00;;
53646;SDS011;39550;52.230;5.194;2023-01-10T04:11:24;11.98;;;3.53;;
53646;SDS011;39550;52.230;5.194;2023-01-10T04:13:50;11.52;;;4.25;;
53646;SDS011;39550;52.230;5.194;2023-01-10T04:16:15;12.15;;;4.13;;
53646;SDS011;39550;52.230;5.194;2023-01-10T04:18:40;11.20;;;3.28;;
53646;SDS011;39550;52.230;5.194;2023-01-10T04:21:06;12.20;;;4.78;;
53646;SDS011;39550;52.230;5.194;2023-01-10T04:23:31;8.88;;;3.67;;
53646;SDS011;39550;52.230;5.194;2023-01-10T04:25:57;8.57;;;3.42;;
53646;SDS011;39550;52.230;5.194;2023-01-10T04:28:22;7.90;;;3.38;;
53646;SDS011;39550;52.230;5.194;2023-01-10T04:30:48;9.00;;;3.78;;
53646;SDS011;39550;52.230;5.194;2023-01-10T04:33:13;11.63;;;5.03;;
53646;SDS011;39550;52.230;5.194;2023-01-10T04:35:38;9.25;;;3.15;;
53646;SDS011;39550;52.230;5.194;2023-01-10T04:38:03;10.95;;;4.13;;
53646;SDS011;39550;52.230;5.194;2023-01-10T04:40:29;9.90;;;3.65;;
53646;SDS011;39550;52.230;5.194;2023-01-10T04:42:54;11.00;;;4.00;;
53646;SDS011;39550;52.230;5.194;2023-01-10T04:45:19;11.63;;;3.75;;
53646;SDS011;39550;52.230;5.194;2023-01-10T04:47:49;8.95;;;3.60;;
53646;SDS011;39550;52.230;5.194;2023-01-10T04:50:15;9.25;;;3.50;;
53646;SDS011;39550;52.230;5.194;2023-01-10T04:52:41;9.90;;;3.72;;
53646;SDS011;39550;52.230;5.194;2023-01-10T04:55:07;11.38;;;4.40;;
53646;SDS011;39550;52.230;5.194;2023-01-10T04:57:33;9.93;;;3.35;;
53646;SDS011;39550;52.230;5.194;2023-01-10T04:59:59;12.82;;;3.50;;
53646;SDS011;39550;52.230;5.194;2023-01-10T05:02:24;8.73;;;4.45;;
53646;SDS011;39550;52.230;5.194;2023-01-10T05:04:49;10.95;;;3.80;;
53646;SDS011;39550;52.230;5.194;2023-01-10T05:07:14;13.38;;;3.92;;
53646;SDS011;39550;52.230;5.194;2023-01-10T05:09:40;9.23;;;3.38;;
53646;SDS011;39550;52.230;5.194;2023-01-10T05:12:06;6.50;;;3.53;;
53646;SDS011;39550;52.230;5.194;2023-01-10T05:14:32;13.68;;;4.53;;
53646;SDS011;39550;52.230;5.194;2023-01-10T05:16:57;17.48;;;4.03;;
53646;SDS011;39550;52.230;5.194;2023-01-10T05:19:23;8.77;;;3.88;;
53646;SDS011;39550;52.230;5.194;2023-01-10T05:21:48;16.52;;;4.82;;
53646;SDS011;39550;52.230;5.194;2023-01-10T05:24:16;12.27;;;3.70;;
53646;SDS011;39550;52.230;5.194;2023-01-10T05:26:41;9.40;;;4.43;;
53646;SDS011;39550;52.230;5.194;2023-01-10T05:29:08;9.88;;;3.50;;
53646;SDS011;39550;52.230;5.194;2023-01-10T05:31:35;8.52;;;3.65;;
53646;SDS011;39550;52.230;5.194;2023-01-10T05:34:00;11.02;;;4.50;;
53646;SDS011;39550;52.230;5.194;2023-01-10T05:36:25;11.32;;;4.03;;
53646;SDS011;39550;52.230;5.194;2023-01-10T05:38:51;10.50;;;3.85;;
53646;SDS011;39550;52.230;5.194;2023-01-10T05:41:19;11.88;;;4.40;;
53646;SDS011;39550;52.230;5.194;2023-01-10T05:43:44;8.05;;;3.97;;
53646;SDS011;39550;52.230;5.194;2023-01-10T05:46:10;14.55;;;4.15;;
53646;SDS011;39550;52.230;5.194;2023-01-10T05:48:35;11.57;;;4.18;;
53646;SDS011;39550;52.230;5.194;2023-01-10T05:51:00;9.73;;;3.20;;
53646;SDS011;39550;52.230;5.194;2023-01-10T05:53:26;11.00;;;3.85;;
53646;SDS011;39550;52.230;5.194;2023-01-10T05:55:55;15.20;;;4.45;;
53646;SDS011;39550;52.230;5.194;2023-01-10T05:58:21;11.63;;;3.90;;
53646;SDS011;39550;52.230;5.194;2023-01-10T06:00:48;10.00;;;3.83;;
53646;SDS011;39550;52.230;5.194;2023-01-10T06:03:13;14.35;;;4.00;;
53646;SDS011;39550;52.230;5.194;2023-01-10T06:05:39;11.32;;;3.85;;
53646;SDS011;39550;52.230;5.194;2023-01-10T06:08:04;9.48;;;4.07;;
53646;SDS011;39550;52.230;5.194;2023-01-10T06:10:29;11.15;;;4.10;;
53646;SDS011;39550;52.230;5.194;2023-01-10T06:12:55;9.23;;;3.60;;
53646;SDS011;39550;52.230;5.194;2023-01-10T06:15:20;12.73;;;3.42;;
53646;SDS011;39550;52.230;5.194;2023-01-10T06:17:45;13.13;;;3.83;;
53646;SDS011;39550;52.230;5.194;2023-01-10T06:20:11;10.82;;;4.28;;
53646;SDS011;39550;52.230;5.194;2023-01-10T06:22:40;14.07;;;4.00;;
53646;SDS011;39550;52.230;5.194;2023-01-10T06:25:06;8.45;;;3.55;;
53646;SDS011;39550;52.230;5.194;2023-01-10T06:27:33;10.98;;;3.88;;
53646;SDS011;39550;52.230;5.194;2023-01-10T06:29:58;11.38;;;4.13;;
53646;SDS011;39550;52.230;5.194;2023-01-10T06:32:25;10.18;;;3.63;;
53646;SDS011;39550;52.230;5.194;2023-01-10T06:34:51;11.00;;;3.97;;
53646;SDS011;39550;52.230;5.194;2023-01-10T06:37:17;14.15;;;4.10;;
53646;SDS011;39550;52.230;5.194;2023-01-10T06:39:45;13.10;;;4.43;;
53646;SDS011;39550;52.230;5.194;2023-01-10T06:42:10;14.30;;;4.00;;
53646;SDS011;39550;52.230;5.194;2023-01-10T06:44:36;9.02;;;3.55;;
53646;SDS011;39550;52.230;5.194;2023-01-10T06:47:01;16.67;;;4.10;;
53646;SDS011;39550;52.230;5.194;2023-01-10T06:49:27;13.77;;;3.78;;
53646;SDS011;39550;52.230;5.194;2023-01-10T06:51:53;14.93;;;5.20;;
53646;SDS011;39550;52.230;5.194;2023-01-10T06:54:18;10.63;;;3.80;;
53646;SDS011;39550;52.230;5.194;2023-01-10T06:56:45;12.02;;;4.10;;
53646;SDS011;39550;52.230;5.194;2023-01-10T06:59:14;16.13;;;4.38;;
53646;SDS011;39550;52.230;5.194;2023-01-10T07:01:39;11.43;;;3.50;;
53646;SDS011;39550;52.230;5.194;2023-01-10T07:04:05;12.00;;;4.57;;
53646;SDS011;39550;52.230;5.194;2023-01-10T07:06:30;16.77;;;4.43;;
53646;SDS011;39550;52.230;5.194;2023-01-10T07:08:56;12.75;;;4.05;;
53646;SDS011;39550;52.230;5.194;2023-01-10T07:11:22;9.20;;;3.20;;
53646;SDS011;39550;52.230;5.194;2023-01-10T07:13:53;13.07;;;3.88;;
53646;SDS011;39550;52.230;5.194;2023-01-10T07:22:31;15.27;;;5.07;;
53646;SDS011;39550;52.230;5.194;2023-01-10T07:24:58;16.58;;;5.15;;
53646;SDS011;39550;52.230;5.194;2023-01-10T07:27:24;17.08;;;4.75;;
53646;SDS011;39550;52.230;5.194;2023-01-10T07:29:49;17.25;;;4.97;;
53646;SDS011;39550;52.230;5.194;2023-01-10T07:32:15;19.73;;;5.82;;
53646;SDS011;39550;52.230;5.194;2023-01-10T07:34:40;15.60;;;4.53;;
53646;SDS011;39550;52.230;5.194;2023-01-10T07:37:05;20.00;;;6.20;;
53646;SDS011;39550;52.230;5.194;2023-01-10T07:39:31;14.32;;;4.55;;
53646;SDS011;39550;52.230;5.194;2023-01-10T07:41:57;12.93;;;4.55;;
53646;SDS011;39550;52.230;5.194;2023-01-10T07:44:25;17.20;;;5.70;;
53646;SDS011;39550;52.230;5.194;2023-01-10T07:46:50;18.52;;;4.78;;
53646;SDS011;39550;52.230;5.194;2023-01-10T07:49:15;15.40;;;4.57;;
53646;SDS011;39550;52.230;5.194;2023-01-10T07:51:41;20.83;;;5.50;;
53646;SDS011;39550;52.230;5.194;2023-01-10T07:54:06;17.10;;;4.97;;
53646;SDS011;39550;52.230;5.194;2023-01-10T07:56:31;14.15;;;4.78;;
53646;SDS011;39550;52.230;5.194;2023-01-10T07:58:57;13.77;;;4.75;;
53646;SDS011;39550;52.230;5.194;2023-01-10T08:01:22;16.40;;;4.90;;
53646;SDS011;39550;52.230;5.194;2023-01-10T08:03:48;14.23;;;4.25;;
53646;SDS011;39550;52.230;5.194;2023-01-10T08:06:14;13.85;;;4.72;;
53646;SDS011;39550;52.230;5.194;2023-01-10T08:08:39;15.75;;;5.00;;
53646;SDS011;39550;52.230;5.194;2023-01-10T08:11:04;12.70;;;4.85;;
53646;SDS011;39550;52.230;5.194;2023-01-10T08:13:30;18.33;;;5.13;;
53646;SDS011;39550;52.230;5.194;2023-01-10T08:15:56;12.52;;;4.55;;
53646;SDS011;39550;52.230;5.194;2023-01-10T08:18:22;18.58;;;5.88;;
53646;SDS011;39550;52.230;5.194;2023-01-10T08:20:49;11.75;;;4.85;;
53646;SDS011;39550;52.230;5.194;2023-01-10T08:23:16;13.57;;;4.55;;
53646;SDS011;39550;52.230;5.194;2023-01-10T08:25:42;15.73;;;5.22;;
53646;SDS011;39550;52.230;5.194;2023-01-10T08:28:07;12.95;;;4.50;;
53646;SDS011;39550;52.230;5.194;2023-01-10T08:30:33;12.30;;;5.00;;
53646;SDS011;39550;52.230;5.194;2023-01-10T08:33:00;14.73;;;4.75;;
53646;SDS011;39550;52.230;5.194;2023-01-10T08:35:26;18.27;;;5.00;;
53646;SDS011;39550;52.230;5.194;2023-01-10T08:37:52;13.70;;;4.70;;
53646;SDS011;39550;52.230;5.194;2023-01-10T08:40:17;12.55;;;4.57;;
53646;SDS011;39550;52.230;5.194;2023-01-10T08:42:43;14.02;;;5.05;;
53646;SDS011;39550;52.230;5.194;2023-01-10T08:45:08;15.55;;;5.25;;
53646;SDS011;39550;52.230;5.194;2023-01-10T08:47:34;15.30;;;5.68;;
53646;SDS011;39550;52.230;5.194;2023-01-10T08:50:00;15.77;;;5.05;;
53646;SDS011;39550;52.230;5.194;2023-01-10T08:52:25;19.65;;;5.13;;
53646;SDS011;39550;52.230;5.194;2023-01-10T08:54:50;15.88;;;6.05;;
53646;SDS011;39550;52.230;5.194;2023-01-10T08:57:16;15.27;;;5.20;;
53646;SDS011;39550;52.230;5.194;2023-01-10T08:59:41;16.08;;;6.50;;
53646;SDS011;39550;52.230;5.194;2023-01-10T09:02:09;13.63;;;5.30;;
53646;SDS011;39550;52.230;5.194;2023-01-10T09:07:02;13.77;;;5.40;;
53646;SDS011;39550;52.230;5.194;2023-01-10T09:09:28;11.88;;;5.65;;
53646;SDS011;39550;52.230;5.194;2023-01-10T09:11:53;13.07;;;6.53;;
53646;SDS011;39550;52.230;5.194;2023-01-10T09:14:18;24.70;;;6.38;;
53646;SDS011;39550;52.230;5.194;2023-01-10T09:16:44;18.30;;;6.25;;
53646;SDS011;39550;52.230;5.194;2023-01-10T09:19:10;18.10;;;6.10;;
53646;SDS011;39550;52.230;5.194;2023-01-10T09:21:36;14.65;;;6.28;;
53646;SDS011;39550;52.230;5.194;2023-01-10T09:24:01;12.85;;;5.13;;
53646;SDS011;39550;52.230;5.194;2023-01-10T09:26:27;20.45;;;5.40;;
53646;SDS011;39550;52.230;5.194;2023-01-10T09:28:53;12.38;;;5.82;;
53646;SDS011;39550;52.230;5.194;2023-01-10T09:31:18;14.90;;;5.55;;
53646;SDS011;39550;52.230;5.194;2023-01-10T09:33:44;15.15;;;5.60;;
53646;SDS011;39550;52.230;5.194;2023-01-10T09:36:11;19.00;;;6.25;;
53646;SDS011;39550;52.230;5.194;2023-01-10T09:38:37;16.33;;;6.20;;
53646;SDS011;39550;52.230;5.194;2023-01-10T09:44:14;14.83;;;5.73;;
53646;SDS011;39550;52.230;5.194;2023-01-10T09:46:59;16.77;;;6.05;;
53646;SDS011;39550;52.230;5.194;2023-01-10T09:52:20;18.02;;;5.53;;
53646;SDS011;39550;52.230;5.194;2023-01-10T09:54:49;11.85;;;5.38;;
53646;SDS011;39550;52.230;5.194;2023-01-10T09:57:18;14.00;;;5.25;;
53646;SDS011;39550;52.230;5.194;2023-01-10T09:59:45;14.32;;;5.55;;
53646;SDS011;39550;52.230;5.194;2023-01-10T10:02:38;16.23;;;5.55;;
53646;SDS011;39550;52.230;5.194;2023-01-10T10:05:14;13.95;;;5.55;;
53646;SDS011;39550;52.230;5.194;2023-01-10T10:07:43;10.95;;;5.20;;
53646;SDS011;39550;52.230;5.194;2023-01-10T10:10:10;19.50;;;6.18;;
53646;SDS011;39550;52.230;5.194;2023-01-10T10:12:42;12.77;;;5.13;;
53646;SDS011;39550;52.230;5.194;2023-01-10T10:16:21;15.43;;;6.10;;
53646;SDS011;39550;52.230;5.194;2023-01-10T10:21:27;14.23;;;5.75;;
53646;SDS011;39550;52.230;5.194;2023-01-10T10:24:20;16.23;;;5.63;;
53646;SDS011;39550;52.230;5.194;2023-01-10T10:26:59;14.93;;;5.57;;
53646;SDS011;39550;52.230;5.194;2023-01-10T10:35:07;16.20;;;6.28;;
53646;SDS011;39550;52.230;5.194;2023-01-10T10:37:57;12.32;;;5.30;;
53646;SDS011;39550;52.230;5.194;2023-01-10T10:40:31;16.77;;;6.20;;
53646;SDS011;39550;52.230;5.194;2023-01-10T10:43:09;18.48;;;6.60;;
53646;SDS011;39550;52.230;5.194;2023-01-10T10:45:49;19.13;;;6.53;;
53646;SDS011;39550;52.230;5.194;2023-01-10T10:51:15;16.00;;;6.40;;
53646;SDS011;39550;52.230;5.194;2023-01-10T10:54:14;15.65;;;6.03;;
53646;SDS011;39550;52.230;5.194;2023-01-10T10:56:40;17.98;;;5.70;;
53646;SDS011;39550;52.230;5.194;2023-01-10T10:59:07;20.05;;;6.40;;
53646;SDS011;39550;52.230;5.194;2023-01-10T11:01:33;15.82;;;6.47;;
53646;SDS011;39550;52.230;5.194;2023-01-10T11:04:09;14.23;;;6.45;;
53646;SDS011;39550;52.230;5.194;2023-01-10T11:06:37;9.97;;;4.60;;
53646;SDS011;39550;52.230;5.194;2023-01-10T11:09:12;14.23;;;6.50;;
53646;SDS011;39550;52.230;5.194;2023-01-10T11:11:45;17.48;;;5.70;;
53646;SDS011;39550;52.230;5.194;2023-01-10T11:14:14;13.48;;;5.95;;
53646;SDS011;39550;52.230;5.194;2023-01-10T11:16:40;16.63;;;6.20;;
53646;SDS011;39550;52.230;5.194;2023-01-10T11:21:46;12.70;;;5.93;;
53646;SDS011;39550;52.230;5.194;2023-01-10T11:24:19;13.70;;;6.50;;
53646;SDS011;39550;52.230;5.194;2023-01-10T11:26:48;13.88;;;5.95;;
53646;SDS011;39550;52.230;5.194;2023-01-10T11:29:15;10.65;;;5.20;;
53646;SDS011;39550;52.230;5.194;2023-01-10T11:31:45;17.25;;;6.25;;
53646;SDS011;39550;52.230;5.194;2023-01-10T11:37:01;19.35;;;5.38;;
53646;SDS011;39550;52.230;5.194;2023-01-10T11:39:27;14.45;;;5.53;;
53646;SDS011;39550;52.230;5.194;2023-01-10T11:41:54;12.40;;;5.38;;
53646;SDS011;39550;52.230;5.194;2023-01-10T11:46:46;17.30;;;6.63;;
53646;SDS011;39550;52.230;5.194;2023-01-10T11:49:14;15.15;;;5.65;;
53646;SDS011;39550;52.230;5.194;2023-01-10T11:51:49;10.18;;;5.05;;
53646;SDS011;39550;52.230;5.194;2023-01-10T11:54:18;12.32;;;5.97;;
53646;SDS011;39550;52.230;5.194;2023-01-10T11:56:57;12.50;;;4.80;;
53646;SDS011;39550;52.230;5.194;2023-01-10T11:59:29;15.48;;;6.05;;
53646;SDS011;39550;52.230;5.194;2023-01-10T12:04:23;12.93;;;4.95;;
53646;SDS011;39550;52.230;5.194;2023-01-10T12:06:52;14.20;;;4.95;;
53646;SDS011;39550;52.230;5.194;2023-01-10T12:14:43;10.90;;;4.80;;
53646;SDS011;39550;52.230;5.194;2023-01-10T12:17:10;10.55;;;4.63;;
53646;SDS011;39550;52.230;5.194;2023-01-10T12:19:45;17.05;;;5.00;;
53646;SDS011;39550;52.230;5.194;2023-01-10T12:22:11;11.63;;;4.75;;
53646;SDS011;39550;52.230;5.194;2023-01-10T12:24:39;10.63;;;4.95;;
53646;SDS011;39550;52.230;5.194;2023-01-10T12:27:09;15.43;;;5.45;;
53646;SDS011;39550;52.230;5.194;2023-01-10T12:29:42;10.73;;;4.93;;
53646;SDS011;39550;52.230;5.194;2023-01-10T12:32:24;14.25;;;5.20;;
53646;SDS011;39550;52.230;5.194;2023-01-10T12:34:55;15.32;;;5.13;;
53646;SDS011;39550;52.230;5.194;2023-01-10T12:39:59;11.52;;;4.65;;
53646;SDS011;39550;52.230;5.194;2023-01-10T12:45:26;12.90;;;5.25;;
53646;SDS011;39550;52.230;5.194;2023-01-10T12:51:04;10.93;;;4.50;;
53646;SDS011;39550;52.230;5.194;2023-01-10T12:53:35;15.05;;;5.25;;
53646;SDS011;39550;52.230;5.194;2023-01-10T12:56:04;16.75;;;5.00;;
53646;SDS011;39550;52.230;5.194;2023-01-10T12:58:38;13.90;;;5.65;;
53646;SDS011;39550;52.230;5.194;2023-01-10T13:01:13;12.80;;;5.22;;
53646;SDS011;39550;52.230;5.194;2023-01-10T13:03:41;12.43;;;5.95;;
53646;SDS011;39550;52.230;5.194;2023-01-10T13:06:11;12.50;;;5.55;;
53646;SDS011;39550;52.230;5.194;2023-01-10T13:08:45;14.52;;;5.53;;
53646;SDS011;39550;52.230;5.194;2023-01-10T13:13:41;12.45;;;5.47;;
53646;SDS011;39550;52.230;5.194;2023-01-10T13:16:16;11.23;;;4.95;;
53646;SDS011;39550;52.230;5.194;2023-01-10T13:18:57;13.25;;;5.10;;
53646;SDS011;39550;52.230;5.194;2023-01-10T13:21:46;12.93;;;5.00;;
53646;SDS011;39550;52.230;5.194;2023-01-10T13:26:44;11.68;;;4.65;;
53646;SDS011;39550;52.230;5.194;2023-01-10T13:29:22;15.07;;;6.40;;
53646;SDS011;39550;52.230;5.194;2023-01-10T13:31:48;15.05;;;6.20;;
53646;SDS011;39550;52.230;5.194;2023-01-10T13:34:20;13.38;;;5.75;;
53646;SDS011;39550;52.230;5.194;2023-01-10T13:36:56;15.45;;;6.88;;
53646;SDS011;39550;52.230;5.194;2023-01-10T13:39:33;14.30;;;5.22;;
53646;SDS011;39550;52.230;5.194;2023-01-10T13:50:50;15.63;;;5.47;;
53646;SDS011;39550;52.230;5.194;2023-01-10T13:55:31;13.95;;;5.47;;
53646;SDS011;39550;52.230;5.194;2023-01-10T14:01:21;14.27;;;5.80;;
53646;SDS011;39550;52.230;5.194;2023-01-10T14:04:21;14.80;;;6.70;;
53646;SDS011;39550;52.230;5.194;2023-01-10T14:09:45;11.60;;;5.65;;
53646;SDS011;39550;52.230;5.194;2023-01-10T14:15:04;13.52;;;5.07;;
53646;SDS011;39550;52.230;5.194;2023-01-10T14:17:33;16.15;;;5.03;;
53646;SDS011;39550;52.230;5.194;2023-01-10T14:20:04;13.60;;;5.00;;
53646;SDS011;39550;52.230;5.194;2023-01-10T14:23:02;12.50;;;5.57;;
53646;SDS011;39550;52.230;5.194;2023-01-10T14:25:27;16.77;;;5.22;;
53646;SDS011;39550;52.230;5.194;2023-01-10T14:27:55;13.18;;;5.60;;
53646;SDS011;39550;52.230;5.194;2023-01-10T14:32:54;12.38;;;5.05;;
53646;SDS011;39550;52.230;5.194;2023-01-10T14:35:37;13.95;;;5.25;;
53646;SDS011;39550;52.230;5.194;2023-01-10T14:38:30;14.23;;;5.90;;
53646;SDS011;39550;52.230;5.194;2023-01-10T14:44:11;13.02;;;5.57;;
53646;SDS011;39550;52.230;5.194;2023-01-10T14:46:51;11.82;;;5.05;;
53646;SDS011;39550;52.230;5.194;2023-01-10T14:49:26;16.50;;;5.22;;
53646;SDS011;39550;52.230;5.194;2023-01-10T14:51:54;16.13;;;5.88;;
53646;SDS011;39550;52.230;5.194;2023-01-10T14:54:35;12.20;;;5.30;;
53646;SDS011;39550;52.230;5.194;2023-01-10T14:57:00;13.80;;;5.85;;
53646;SDS011;39550;52.230;5.194;2023-01-10T14:59:27;13.23;;;4.43;;
53646;SDS011;39550;52.230;5.194;2023-01-10T15:01:54;10.80;;;4.57;;
53646;SDS011;39550;52.230;5.194;2023-01-10T15:04:28;10.38;;;4.53;;
53646;SDS011;39550;52.230;5.194;2023-01-10T15:07:09;15.48;;;5.35;;
53646;SDS011;39550;52.230;5.194;2023-01-10T15:09:36;15.70;;;4.68;;
53646;SDS011;39550;52.230;5.194;2023-01-10T15:12:03;12.93;;;5.28;;
53646;SDS011;39550;52.230;5.194;2023-01-10T15:14:31;10.90;;;4.70;;
53646;SDS011;39550;52.230;5.194;2023-01-10T15:16:59;12.90;;;4.60;;
53646;SDS011;39550;52.230;5.194;2023-01-10T15:19:28;12.73;;;4.80;;
53646;SDS011;39550;52.230;5.194;2023-01-10T15:21:55;11.98;;;4.70;;
53646;SDS011;39550;52.230;5.194;2023-01-10T15:24:23;13.70;;;5.32;;
53646;SDS011;39550;52.230;5.194;2023-01-10T15:27:03;17.25;;;5.38;;
53646;SDS011;39550;52.230;5.194;2023-01-10T15:29:35;15.20;;;5.30;;
53646;SDS011;39550;52.230;5.194;2023-01-10T15:32:09;16.63;;;5.65;;
53646;SDS011;39550;52.230;5.194;2023-01-10T15:34:41;12.43;;;4.40;;
53646;SDS011;39550;52.230;5.194;2023-01-10T15:37:16;12.45;;;5.38;;
53646;SDS011;39550;52.230;5.194;2023-01-10T15:39:49;15.68;;;4.80;;
53646;SDS011;39550;52.230;5.194;2023-01-10T15:42:15;14.60;;;5.50;;
53646;SDS011;39550;52.230;5.194;2023-01-10T15:44:44;12.87;;;4.10;;
53646;SDS011;39550;52.230;5.194;2023-01-10T15:53:06;10.80;;;4.40;;
53646;SDS011;39550;52.230;5.194;2023-01-10T15:55:34;13.57;;;5.22;;
53646;SDS011;39550;52.230;5.194;2023-01-10T16:00:49;12.60;;;4.40;;
53646;SDS011;39550;52.230;5.194;2023-01-10T16:03:25;12.77;;;5.38;;
53646;SDS011;39550;52.230;5.194;2023-01-10T16:05:54;11.00;;;5.03;;
53646;SDS011;39550;52.230;5.194;2023-01-10T16:08:23;12.02;;;4.68;;
53646;SDS011;39550;52.230;5.194;2023-01-10T16:10:51;10.93;;;4.90;;
53646;SDS011;39550;52.230;5.194;2023-01-10T16:13:21;12.30;;;4.50;;
53646;SDS011;39550;52.230;5.194;2023-01-10T16:15:56;11.00;;;4.50;;
53646;SDS011;39550;52.230;5.194;2023-01-10T16:18:23;10.45;;;4.03;;
53646;SDS011;39550;52.230;5.194;2023-01-10T16:20:50;10.25;;;4.63;;
53646;SDS011;39550;52.230;5.194;2023-01-10T16:23:23;13.57;;;4.95;;
53646;SDS011;39550;52.230;5.194;2023-01-10T16:25:56;11.07;;;4.32;;
53646;SDS011;39550;52.230;5.194;2023-01-10T16:28:24;13.02;;;4.55;;
53646;SDS011;39550;52.230;5.194;2023-01-10T16:30:52;9.60;;;4.50;;
53646;SDS011;39550;52.230;5.194;2023-01-10T16:33:19;13.10;;;4.22;;
53646;SDS011;39550;52.230;5.194;2023-01-10T16:35:49;12.10;;;4.63;;
53646;SDS011;39550;52.230;5.194;2023-01-10T16:38:17;6.25;;;3.70;;
53646;SDS011;39550;52.230;5.194;2023-01-10T16:40:46;10.55;;;4.55;;
53646;SDS011;39550;52.230;5.194;2023-01-10T16:43:37;7.60;;;4.10;;
53646;SDS011;39550;52.230;5.194;2023-01-10T16:46:02;9.55;;;4.13;;
53646;SDS011;39550;52.230;5.194;2023-01-10T16:48:29;9.82;;;3.90;;
53646;SDS011;39550;52.230;5.194;2023-01-10T16:51:12;9.55;;;3.83;;
53646;SDS011;39550;52.230;5.194;2023-01-10T16:53:42;7.78;;;4.03;;
53646;SDS011;39550;52.230;5.194;2023-01-10T16:56:09;10.95;;;3.83;;
53646;SDS011;39550;52.230;5.194;2023-01-10T16:58:37;11.07;;;3.78;;